Time;durP1;ratioP1;P1;durP2;ratioP2;P2;SDS_P1;SDS_P2;PMS_P1;PMS_P2;Temp;Humidity;BMP_temperature;BMP_pressure;BME280_temperature;BME280_humidity;BME280_pressure;Samples;Min_cycle;Max_cycle;Signal;HPM_P1;HPM_P2
2020/12/02 00:01:24;;;;;;;23.32;11.30;;;;;;;1.54;89.79;100041.13;1724435;82;21178;-64
2020/12/02 00:03:57;;;;;;;20.00;11.48;;;;;;;1.58;89.83;100046.87;1724342;83;21300;-65
2020/12/02 00:06:26;;;;;;;14.98;8.90;;;;;;;1.52;89.63;100047.37;1724438;83;21304;-65
2020/12/02 00:08:59;;;;;;;17.32;10.05;;;;;;;1.45;89.73;100044.84;1724506;82;21189;-65
2020/12/02 00:11:28;;;;;;;15.55;8.88;;;;;;;1.40;89.97;100054.20;1724622;82;21169;-65
2020/12/02 00:14:01;;;;;;;14.65;9.58;;;;;;;1.32;89.93;100048.62;1724754;82;21573;-66
2020/12/02 00:16:31;;;;;;;16.17;9.78;;;;;;;1.28;90.25;100056.85;1724526;82;21292;-65
2020/12/02 00:19:00;;;;;;;17.70;10.03;;;;;;;1.26;90.47;100057.14;1724406;82;21181;-65
2020/12/02 00:21:33;;;;;;;18.42;9.50;;;;;;;1.23;90.41;100052.73;1724621;82;21170;-65
2020/12/02 00:24:01;;;;;;;13.38;8.10;;;;;;;1.20;90.53;100051.66;1724523;82;21282;-65
2020/12/02 00:26:29;;;;;;;16.97;9.40;;;;;;;1.17;90.75;100051.44;1724816;82;21548;-65
2020/12/02 00:28:59;;;;;;;15.32;9.20;;;;;;;1.17;90.76;100048.89;1724411;82;21189;-65
2020/12/02 00:31:27;;;;;;;14.70;8.48;;;;;;;1.20;90.70;100052.54;1724418;82;21165;-64
2020/12/02 00:34:07;;;;;;;19.20;8.68;;;;;;;1.17;90.49;100048.89;1759550;80;21304;-64
2020/12/02 00:36:35;;;;;;;15.53;8.70;;;;;;;1.07;90.82;100050.85;1758318;81;21279;-65
2020/12/02 00:39:03;;;;;;;18.87;9.50;;;;;;;1.07;90.99;100052.12;1758354;81;21148;-64
2020/12/02 00:41:31;;;;;;;15.58;8.90;;;;;;;1.14;90.96;100051.24;1758691;81;21181;-65
2020/12/02 00:43:59;;;;;;;17.62;10.32;;;;;;;1.18;90.75;100054.48;1758341;81;21292;-64
2020/12/02 00:46:27;;;;;;;14.87;9.20;;;;;;;1.18;90.67;100058.30;1758644;81;21276;-64
2020/12/02 00:48:55;;;;;;;14.23;8.30;;;;;;;1.15;90.89;100053.90;1758516;81;21588;-65
2020/12/02 00:51:23;;;;;;;15.63;9.28;;;;;;;1.22;91.06;100056.07;1758327;81;21328;-65
2020/12/02 00:53:52;;;;;;;14.78;7.97;;;;;;;1.27;90.78;100057.61;1758289;81;21319;-65
2020/12/02 00:56:21;;;;;;;13.08;7.78;;;;;;;1.30;90.65;100059.11;1758352;81;21219;-65
2020/12/02 00:59:05;;;;;;;14.07;7.85;;;;;;;1.29;90.55;100058.60;1758539;81;21382;-64
2020/12/02 01:01:40;;;;;;;14.18;7.78;;;;;;;1.29;90.44;100055.66;1757922;81;21126;-65
2020/12/02 01:04:16;;;;;;;15.15;8.10;;;;;;;1.27;90.16;100048.71;1754690;81;21297;-64
2020/12/02 01:06:47;;;;;;;14.45;8.05;;;;;;;1.13;89.95;100050.37;1758423;81;21552;-64
2020/12/02 01:09:17;;;;;;;15.48;8.40;;;;;;;1.03;90.55;100051.42;1758562;81;21588;-64
2020/12/02 01:11:48;;;;;;;13.03;7.67;;;;;;;1.01;90.57;100047.89;1758558;81;21166;-64
2020/12/02 01:14:18;;;;;;;15.00;8.85;;;;;;;1.04;90.69;100044.66;1758286;81;21561;-64
2020/12/02 01:16:51;;;;;;;11.80;7.25;;;;;;;1.08;90.62;100047.91;1758522;81;21288;-65
2020/12/02 01:19:30;;;;;;;14.55;8.90;;;;;;;1.08;90.34;100038.62;1758490;82;21735;-64
2020/12/02 01:22:29;;;;;;;15.93;9.33;;;;;;;1.03;90.23;100042.92;1758493;82;21189;-65
2020/12/02 01:25:20;;;;;;;13.43;8.43;;;;;;;1.03;90.22;100038.71;1758123;81;21278;-64
2020/12/02 01:27:56;;;;;;;14.38;9.03;;;;;;;1.02;90.15;100031.88;1758568;81;21304;-64
2020/12/02 01:30:25;;;;;;;15.15;8.68;;;;;;;1.05;90.02;100038.83;1758628;82;21122;-64
2020/12/02 01:32:54;;;;;;;15.63;9.18;;;;;;;1.07;89.79;100040.69;1777178;79;21297;-64
2020/12/02 01:35:25;;;;;;;19.30;10.58;;;;;;;1.06;89.84;100028.73;1805669;79;21134;-64
2020/12/02 01:37:58;;;;;;;19.52;10.75;;;;;;;1.04;89.79;100029.05;1806017;79;21150;-64
2020/12/02 01:40:33;;;;;;;18.37;10.45;;;;;;;1.05;89.62;100029.92;1805856;79;21304;-64
2020/12/02 01:43:06;;;;;;;17.45;9.78;;;;;;;1.05;89.75;100029.53;1806066;79;21146;-65
2020/12/02 01:45:39;;;;;;;17.57;10.05;;;;;;;1.08;89.70;100031.39;1805886;79;21154;-64
2020/12/02 01:48:36;;;;;;;17.48;10.20;;;;;;;1.07;89.49;100025.44;1805119;79;21135;-65
2020/12/02 01:51:40;;;;;;;14.60;9.25;;;;;;;1.07;89.60;100024.16;1805638;79;21107;-65
2020/12/02 01:54:27;;;;;;;16.10;8.73;;;;;;;1.05;89.57;100026.11;1805945;79;21285;-65
2020/12/02 01:57:25;;;;;;;15.15;9.43;;;;;;;1.04;89.49;100020.16;1804600;79;21111;-64
2020/12/02 02:00:12;;;;;;;21.45;11.20;;;;;;;1.07;89.39;100021.62;1805659;79;21265;-64
2020/12/02 02:03:00;;;;;;;15.85;9.40;;;;;;;1.06;89.42;100018.57;1806124;79;21130;-65
2020/12/02 02:05:54;;;;;;;16.02;8.98;;;;;;;1.04;89.68;100015.08;1805818;79;21292;-64
2020/12/02 02:08:27;;;;;;;16.10;9.00;;;;;;;1.07;89.71;100014.00;1805810;79;21292;-65
2020/12/02 02:10:58;;;;;;;14.93;8.83;;;;;;;1.11;89.69;100019.27;1805973;79;21333;-65
2020/12/02 02:13:51;;;;;;;16.25;9.95;;;;;;;1.13;89.70;100014.78;1805824;79;21191;-65
2020/12/02 02:16:27;;;;;;;16.50;9.45;;;;;;;1.17;89.42;100013.30;1805905;79;21138;-65
2020/12/02 02:18:56;;;;;;;20.62;11.48;;;;;;;1.22;89.56;100020.84;1805649;79;21163;-64
2020/12/02 02:21:32;;;;;;;20.08;11.00;;;;;;;1.25;89.56;100022.33;1805827;79;21302;-64
2020/12/02 02:24:00;;;;;;;19.10;10.32;;;;;;;1.29;89.71;100019.19;1806095;79;21142;-64
2020/12/02 02:26:41;;;;;;;17.98;10.10;;;;;;;1.33;89.75;100012.26;1805960;79;21145;-64
2020/12/02 02:29:32;;;;;;;17.37;9.33;;;;;;;1.38;89.67;100012.16;1805720;79;21304;-64
2020/12/02 02:32:13;;;;;;;17.25;9.78;;;;;;;1.41;89.40;100016.56;1806031;79;21138;-65
2020/12/02 02:34:49;;;;;;;17.87;9.48;;;;;;;1.37;88.93;100011.66;1805744;79;21325;-65
2020/12/02 02:37:20;;;;;;;14.58;8.40;;;;;;;1.36;89.15;100015.39;1805040;79;21281;-64
2020/12/02 02:39:49;;;;;;;14.10;8.45;;;;;;;1.35;88.91;100014.88;1806110;79;21146;-65
2020/12/02 02:42:31;;;;;;;16.40;9.60;;;;;;;1.26;88.73;100012.24;1806154;79;21139;-64
2020/12/02 02:45:04;;;;;;;19.32;9.73;;;;;;;1.23;88.96;100016.27;1805780;79;21299;-64
2020/12/02 02:47:33;;;;;;;17.23;8.93;;;;;;;1.25;89.25;100018.52;1805788;79;21153;-64
2020/12/02 02:50:01;;;;;;;16.97;9.05;;;;;;;1.30;89.28;100014.61;1805777;79;21288;-65
2020/12/02 02:52:28;;;;;;;16.93;9.73;;;;;;;1.31;89.14;100020.17;1805856;79;21118;-65
2020/12/02 02:54:56;;;;;;;17.95;9.65;;;;;;;1.33;89.33;100019.89;1805941;79;21229;-63
2020/12/02 02:57:24;;;;;;;15.63;9.10;;;;;;;1.36;89.15;100024.29;1805749;79;21154;-64
2020/12/02 02:59:52;;;;;;;13.90;8.40;;;;;;;1.36;88.84;100023.89;1805933;79;21162;-64
2020/12/02 03:02:20;;;;;;;14.90;8.78;;;;;;;1.32;88.89;100020.65;1805786;79;21115;-64
2020/12/02 03:04:48;;;;;;;13.48;7.95;;;;;;;1.31;89.14;100022.72;1805767;79;21158;-64
2020/12/02 03:07:17;;;;;;;16.37;9.28;;;;;;;1.32;88.89;100023.19;1805855;79;21276;-65
2020/12/02 03:09:45;;;;;;;19.02;9.88;;;;;;;1.31;89.16;100032.89;1805733;79;21292;-65
2020/12/02 03:12:13;;;;;;;17.23;10.03;;;;;;;1.36;89.30;100028.11;1806013;79;21142;-65
2020/12/02 03:14:42;;;;;;;17.82;9.35;;;;;;;1.38;89.22;100024.88;1805786;79;21311;-65
2020/12/02 03:17:20;;;;;;;18.07;9.30;;;;;;;1.40;88.69;100024.59;1805716;79;21193;-65
2020/12/02 03:19:57;;;;;;;15.58;9.18;;;;;;;1.38;88.80;100021.46;1805817;79;21602;-65
2020/12/02 03:22:27;;;;;;;19.57;9.95;;;;;;;1.35;88.68;100029.77;1805583;79;21284;-64
2020/12/02 03:24:57;;;;;;;19.05;9.78;;;;;;;1.17;88.08;100023.47;1805979;79;21671;-64
2020/12/02 03:27:25;;;;;;;21.48;10.82;;;;;;;1.04;87.97;100018.89;1805930;79;21119;-64
2020/12/02 03:29:54;;;;;;;24.15;12.73;;;;;;;0.94;87.79;100020.33;1805715;79;21147;-65
2020/12/02 03:32:22;;;;;;;25.50;12.80;;;;;;;0.85;87.24;100018.44;1805704;79;21304;-65
2020/12/02 03:34:50;;;;;;;23.12;12.55;;;;;;;0.82;87.04;100020.78;1797752;79;21365;-65
2020/12/02 03:37:18;;;;;;;26.55;13.58;;;;;;;0.81;86.70;100016.06;1797278;80;21155;-65
2020/12/02 03:39:46;;;;;;;25.48;12.37;;;;;;;0.78;86.58;100015.00;1797601;80;21300;-65
2020/12/02 03:42:14;;;;;;;24.50;13.80;;;;;;;0.74;86.34;100016.47;1797590;80;21312;-64
2020/12/02 03:44:42;;;;;;;25.15;13.48;;;;;;;0.72;86.27;100014.60;1797504;79;21273;-66
2020/12/02 03:47:10;;;;;;;28.42;13.35;;;;;;;0.71;86.34;100016.63;1797351;80;21269;-64
2020/12/02 03:49:37;;;;;;;27.73;15.05;;;;;;;0.71;86.39;100014.09;1803723;79;21142;-64
2020/12/02 03:52:05;;;;;;;29.98;13.75;;;;;;;0.65;86.55;100012.90;1797371;80;21151;-64
2020/12/02 03:54:33;;;;;;;25.35;13.88;;;;;;;0.56;86.92;100012.30;1797492;79;21221;-65
2020/12/02 03:57:02;;;;;;;27.30;12.93;;;;;;;0.57;87.23;100015.72;1797545;79;21151;-64
2020/12/02 03:59:30;;;;;;;28.20;15.15;;;;;;;0.55;87.06;100015.60;1797509;79;21293;-64
2020/12/02 04:01:58;;;;;;;26.85;14.15;;;;;;;0.56;87.28;100016.11;1797369;80;21138;-64
2020/12/02 04:04:25;;;;;;;27.05;13.90;;;;;;;0.55;87.39;100015.60;1797342;80;21281;-64
2020/12/02 04:06:53;;;;;;;26.65;13.95;;;;;;;0.52;87.50;100016.67;1797467;79;21358;-65
2020/12/02 04:09:21;;;;;;;26.40;13.98;;;;;;;0.48;87.67;100021.04;1797233;80;21629;-64
2020/12/02 04:11:48;;;;;;;28.07;15.55;;;;;;;0.47;88.00;100020.56;1797583;80;21132;-65
2020/12/02 04:14:17;;;;;;;25.97;13.55;;;;;;;0.43;88.07;100019.84;1797251;80;21142;-65
2020/12/02 04:16:45;;;;;;;26.52;12.75;;;;;;;0.39;88.31;100024.25;1797280;79;21285;-64
2020/12/02 04:19:12;;;;;;;25.85;14.40;;;;;;;0.37;88.36;100024.13;1797556;80;21150;-65
2020/12/02 04:21:40;;;;;;;27.93;14.35;;;;;;;0.36;88.54;100027.84;1797308;80;21146;-64
2020/12/02 04:24:08;;;;;;;29.67;16.10;;;;;;;0.35;88.77;100023.13;1797237;80;21266;-64
2020/12/02 04:26:36;;;;;;;27.40;14.68;;;;;;;0.35;88.74;100025.67;1797237;80;21265;-64
2020/12/02 04:29:04;;;;;;;31.45;15.35;;;;;;;0.34;88.57;100023.05;1797234;79;21268;-64
2020/12/02 04:31:47;;;;;;;28.27;14.60;;;;;;;0.30;88.82;100024.88;1797528;80;21155;-64
2020/12/02 04:34:15;;;;;;;29.90;15.65;;;;;;;0.29;88.68;100021.46;1802287;79;21166;-64
2020/12/02 04:36:50;;;;;;;31.10;15.03;;;;;;;0.27;88.68;100025.55;1805882;79;21276;-64
2020/12/02 04:39:18;;;;;;;31.48;15.93;;;;;;;0.28;88.55;100023.87;1805673;79;21162;-63
2020/12/02 04:41:46;;;;;;;30.37;15.15;;;;;;;0.25;88.21;100029.63;1805801;79;21158;-64
2020/12/02 04:44:14;;;;;;;26.42;13.72;;;;;;;0.21;87.89;100028.94;1806005;79;21158;-64
2020/12/02 04:46:43;;;;;;;30.23;15.28;;;;;;;0.16;87.48;100031.16;1806021;79;21288;-64
2020/12/02 04:49:22;;;;;;;32.25;15.35;;;;;;;0.14;87.66;100030.16;1803154;79;21151;-63
2020/12/02 04:52:01;;;;;;;30.32;16.00;;;;;;;0.15;87.61;100024.33;1805653;79;21162;-65
2020/12/02 04:54:28;;;;;;;27.75;13.80;;;;;;;0.19;87.52;100018.67;1805847;79;21103;-64
2020/12/02 04:56:57;;;;;;;30.75;15.28;;;;;;;0.17;87.46;100021.48;1805679;79;21139;-64
2020/12/02 04:59:44;;;;;;;31.60;15.55;;;;;;;0.19;87.51;100022.48;1806027;79;21183;-64
2020/12/02 05:02:30;;;;;;;31.75;15.90;;;;;;;0.25;87.52;100022.02;1805754;79;21300;-65
2020/12/02 05:05:01;;;;;;;30.30;15.03;;;;;;;0.29;87.44;100020.59;1805802;79;21158;-65
2020/12/02 05:07:30;;;;;;;29.30;15.18;;;;;;;0.27;87.63;100020.86;1805670;79;21154;-65
2020/12/02 05:10:02;;;;;;;28.17;15.80;;;;;;;0.30;87.66;100022.33;1805652;79;21147;-65
2020/12/02 05:12:41;;;;;;;32.67;16.35;;;;;;;0.31;87.62;100022.84;1805219;79;21163;-65
2020/12/02 05:15:27;;;;;;;32.98;15.28;;;;;;;0.32;87.71;100023.33;1805620;79;21217;-65
2020/12/02 05:18:24;;;;;;;33.10;17.23;;;;;;;0.34;87.73;100028.13;1805855;79;21293;-65
2020/12/02 05:21:18;;;;;;;30.55;16.20;;;;;;;0.24;88.02;100032.95;1805959;79;21127;-65
2020/12/02 05:23:42;;;;;;;31.97;16.80;;;;;;;0.14;88.44;100031.44;1805142;79;21132;-65
2020/12/02 05:26:17;;;;;;;32.35;15.00;;;;;;;0.18;88.74;100028.73;1805695;79;21142;-65
2020/12/02 05:28:46;;;;;;;33.48;15.68;;;;;;;0.13;89.04;100028.41;1805863;79;21561;-65
2020/12/02 05:31:28;;;;;;;30.80;14.90;;;;;;;0.18;89.18;100030.01;1805607;79;21371;-66
2020/12/02 05:34:15;;;;;;;28.85;15.03;;;;;;;0.23;89.17;100031.56;1801877;79;21123;-66
2020/12/02 05:36:51;;;;;;;23.12;13.72;;;;;;;0.26;89.04;100034.34;1797343;79;21174;-65
2020/12/02 05:39:41;;;;;;;29.05;14.23;;;;;;;0.26;88.98;100038.15;1803524;79;21151;-65
2020/12/02 05:42:36;;;;;;;27.25;12.82;;;;;;;0.24;88.78;100030.81;1797377;80;21138;-65
2020/12/02 05:45:28;;;;;;;27.98;13.28;;;;;;;0.26;88.85;100047.03;1742426;80;21763;-65
2020/12/02 05:47:56;;;;;;;30.52;14.85;;;;;;;0.13;88.74;100038.96;1744463;81;21130;-65
2020/12/02 05:50:25;;;;;;;25.40;12.65;;;;;;;0.06;89.24;100046.52;1771279;81;21114;-65
2020/12/02 05:53:36;;;;;;;21.37;11.00;;;;;;;0.07;89.18;100041.05;1771038;81;21307;-66
2020/12/02 05:56:07;;;;;;;;;;;;;;;0.10;89.03;100043.80;1773572;81;21150;-65
2020/12/02 05:58:35;;;;;;;24.12;11.63;;;;;;;0.09;89.12;100042.05;1771084;81;20143;-65
2020/12/02 06:01:03;;;;;;;18.23;9.55;;;;;;;0.09;89.13;100046.73;1780132;80;21283;-65
2020/12/02 06:03:34;;;;;;;17.70;9.65;;;;;;;0.07;88.99;100043.59;1779525;80;21166;-66
2020/12/02 06:06:06;;;;;;;19.37;10.38;;;;;;;0.11;89.20;100051.92;1759713;80;21117;-65
2020/12/02 06:08:50;;;;;;;21.15;10.25;;;;;;;0.13;88.46;100053.80;1779739;80;21154;-65
2020/12/02 06:11:24;;;;;;;18.50;10.43;;;;;;;0.04;88.72;100056.07;1783315;80;21413;-65
2020/12/02 06:13:57;;;;;;;22.30;11.12;;;;;;;0.04;88.51;100058.61;1780240;79;21273;-65
2020/12/02 06:16:42;;;;;;;18.73;9.95;;;;;;;0.05;88.88;100054.02;1781792;80;21364;-65
2020/12/02 06:19:39;;;;;;;20.32;12.00;;;;;;;0.08;88.73;100065.28;1783648;80;21146;-66
2020/12/02 06:22:08;;;;;;;21.02;10.60;;;;;;;0.05;88.86;100054.02;1787981;79;21149;-65
2020/12/02 06:24:47;;;;;;;21.15;11.28;;;;;;;0.03;89.18;100054.33;1781867;80;21350;-66
2020/12/02 06:27:26;;;;;;;18.67;10.28;;;;;;;0.06;89.21;100055.41;1782008;80;21532;-65
2020/12/02 06:30:05;;;;;;;21.52;11.03;;;;;;;0.07;89.28;100051.20;1777137;80;21146;-66
2020/12/02 06:32:34;;;;;;;18.20;10.43;;;;;;;0.16;88.96;100048.92;1782034;80;21126;-65
2020/12/02 06:35:16;;;;;;;18.17;10.28;;;;;;;0.18;88.82;100050.31;1785461;80;21293;-66
2020/12/02 06:37:45;;;;;;;;;;;;;;;0.26;88.56;100055.53;1789785;80;21338;-65
2020/12/02 06:40:16;;;;;;;17.73;10.13;;;;;;;0.29;87.97;100056.12;1787312;80;20224;-65
2020/12/02 06:42:45;;;;;;;15.93;8.65;;;;;;;0.28;87.99;100055.61;1787799;80;21541;-65
2020/12/02 06:45:37;;;;;;;19.35;10.65;;;;;;;0.31;87.92;100054.58;1787544;79;21275;-66
2020/12/02 06:48:14;;;;;;;19.77;10.70;;;;;;;0.16;87.65;100060.74;1774234;81;21284;-65
2020/12/02 06:50:41;;;;;;;19.50;11.28;;;;;;;-0.04;88.18;100055.53;1774123;81;21166;-73
2020/12/02 06:53:21;;;;;;;22.48;11.05;;;;;;;-0.19;88.88;100062.06;1774390;81;21702;-73
2020/12/02 06:55:59;;;;;;;20.90;11.75;;;;;;;-0.26;89.16;100059.47;1774412;81;21308;-74
2020/12/02 06:58:28;;;;;;;18.82;10.25;;;;;;;-0.17;89.65;100059.25;1774255;81;21158;-70
2020/12/02 07:01:00;;;;;;;23.85;12.10;;;;;;;-0.10;89.24;100065.23;1770254;81;21181;-74
2020/12/02 07:03:45;;;;;;;22.45;13.08;;;;;;;-0.09;89.37;100065.75;1772629;80;22273;-69
2020/12/02 07:06:24;;;;;;;23.47;12.53;;;;;;;-0.02;89.50;100063.75;1772483;81;21237;-72
2020/12/02 07:09:03;;;;;;;18.12;11.25;;;;;;;0.13;89.44;100062.67;1772800;81;21632;-71
2020/12/02 07:11:32;;;;;;;30.97;13.50;;;;;;;0.15;88.98;100057.33;1774190;81;21560;-72
2020/12/02 07:14:23;;;;;;;24.77;12.28;;;;;;;0.27;88.86;100060.21;1774184;81;21553;-73
2020/12/02 07:16:58;;;;;;;25.92;13.62;;;;;;;0.36;88.77;100060.86;1715397;82;21321;-69
2020/12/02 07:19:43;;;;;;;23.07;12.10;;;;;;;0.45;88.83;100055.12;1774060;81;21131;-70
2020/12/02 07:22:48;;;;;;;28.20;14.63;;;;;;;0.48;87.93;100057.86;1773981;80;21162;-73
2020/12/02 07:25:16;;;;;;;23.67;12.70;;;;;;;0.41;88.22;100063.33;1724628;83;21679;-72
2020/12/02 07:27:46;;;;;;;28.42;14.07;;;;;;;0.43;87.75;100055.40;1724519;83;21734;-67
2020/12/02 07:30:33;;;;;;;31.05;17.27;;;;;;;0.45;88.03;100055.12;1724450;83;21162;-71
2020/12/02 07:33:23;;;;;;;29.87;16.02;;;;;;;0.49;87.85;100060.91;1724427;83;21307;-74
2020/12/02 07:36:18;;;;;;;31.57;15.58;;;;;;;0.47;87.75;100065.00;1724640;83;21299;-72
2020/12/02 07:38:46;;;;;;;28.62;15.95;;;;;;;0.41;87.68;100060.39;1661044;86;21190;-74
2020/12/02 07:41:19;;;;;;;33.45;15.55;;;;;;;0.42;87.99;100061.27;1661056;86;21185;-74
2020/12/02 07:43:49;;;;;;;36.77;16.55;;;;;;;0.48;88.03;100069.69;1690238;83;21189;-73
2020/12/02 07:46:22;;;;;;;30.12;16.05;;;;;;;0.54;87.96;100067.19;1724617;83;21170;-74
2020/12/02 07:48:54;;;;;;;30.30;15.38;;;;;;;0.58;87.79;100067.00;1724610;83;21183;-72
2020/12/02 07:51:28;;;;;;;31.80;15.08;;;;;;;0.60;87.47;100075.21;1724555;83;21913;-75
2020/12/02 07:54:19;;;;;;;26.33;14.35;;;;;;;0.67;87.62;100073.11;1724631;83;21165;-74
2020/12/02 07:56:48;;;;;;;29.20;15.67;;;;;;;0.68;87.54;100066.84;1724918;83;21738;-74
2020/12/02 07:59:26;;;;;;;29.63;14.50;;;;;;;0.70;87.38;100062.75;1724658;83;21584;-74
2020/12/02 08:02:02;;;;;;;27.87;16.60;;;;;;;0.70;86.51;100069.50;1724576;83;21319;-75
2020/12/02 08:04:41;;;;;;;31.40;17.52;;;;;;;0.62;87.16;100070.25;1724564;83;21134;-73
2020/12/02 08:07:12;;;;;;;28.73;15.15;;;;;;;0.53;87.41;100061.59;1665468;86;21183;-72
2020/12/02 08:09:46;;;;;;;27.85;15.58;;;;;;;0.41;87.14;100065.47;1724666;83;21173;-74
2020/12/02 08:12:28;;;;;;;26.15;13.80;;;;;;;0.34;87.92;100063.67;1724585;83;21162;-71
2020/12/02 08:15:07;;;;;;;24.12;14.40;;;;;;;0.37;87.70;100063.48;1717071;83;21170;-72
2020/12/02 08:17:38;;;;;;;25.92;14.80;;;;;;;0.42;87.90;100057.45;1723636;83;21595;-71
2020/12/02 08:20:31;;;;;;;26.95;15.08;;;;;;;0.49;87.97;100057.11;1697279;83;21565;-73
2020/12/02 08:23:06;;;;;;;31.60;18.27;;;;;;;0.56;87.62;100056.75;1724859;81;21312;-71
2020/12/02 08:25:53;;;;;;;34.23;16.77;;;;;;;0.64;87.79;100054.73;1732622;83;21165;-71
2020/12/02 08:28:27;;;;;;;26.90;15.40;;;;;;;0.67;87.44;100060.41;1732764;83;21276;-69
2020/12/02 08:31:27;;;;;;;35.28;17.07;;;;;;;0.58;87.31;100056.84;1728245;83;21170;-71
2020/12/02 08:34:17;;;;;;;33.90;18.35;;;;;;;0.50;87.54;100049.97;1732437;83;21181;-71
2020/12/02 08:37:12;;;;;;;28.80;17.48;;;;;;;0.35;87.91;100056.14;1677781;83;21628;-69
2020/12/02 08:39:44;;;;;;;36.65;18.60;;;;;;;0.24;88.10;100054.92;1688604;84;21349;-75
2020/12/02 08:42:24;;;;;;;31.45;20.23;;;;;;;0.30;88.46;100052.80;1732556;83;21312;-69
2020/12/02 08:45:14;;;;;;;34.33;20.12;;;;;;;0.39;88.56;100054.71;1732837;83;21129;-73
2020/12/02 08:47:42;;;;;;;34.20;18.42;;;;;;;0.35;88.18;100048.92;1732689;83;21319;-73
2020/12/02 08:50:29;;;;;;;36.53;18.60;;;;;;;0.43;88.61;100042.70;1728110;83;21193;-71
2020/12/02 08:52:59;;;;;;;38.33;21.05;;;;;;;0.38;88.08;100043.68;1732440;83;21134;-69
2020/12/02 08:55:27;;;;;;;44.53;23.77;;;;;;;0.34;88.60;100043.36;1732546;83;21603;-73
2020/12/02 08:57:57;;;;;;;40.98;23.85;;;;;;;0.24;88.85;100047.31;1703216;83;21161;-73
2020/12/02 09:00:24;;;;;;;43.38;24.67;;;;;;;0.18;88.97;100046.51;1732403;83;21169;-73
2020/12/02 09:02:53;;;;;;;38.15;22.60;;;;;;;0.15;89.24;100042.10;1732404;83;21327;-73
2020/12/02 09:05:20;;;;;;;37.40;21.87;;;;;;;0.21;89.13;100041.64;1732583;83;21175;-74
2020/12/02 09:07:51;;;;;;;41.37;24.50;;;;;;;0.27;89.14;100038.62;1732508;83;21157;-72
2020/12/02 09:10:19;;;;;;;39.08;21.97;;;;;;;0.28;89.02;100031.49;1732764;83;21158;-71
2020/12/02 09:12:46;;;;;;;33.05;20.25;;;;;;;0.18;88.87;100043.58;1732667;83;21582;-72
2020/12/02 09:15:14;;;;;;;37.20;19.98;;;;;;;0.15;88.92;100038.66;1732786;83;21698;-68
2020/12/02 09:17:42;;;;;;;33.42;19.50;;;;;;;0.12;89.25;100041.86;1732835;83;21153;-73
2020/12/02 09:20:09;;;;;;;35.45;20.17;;;;;;;0.11;89.23;100040.11;1732654;83;21560;-72
2020/12/02 09:22:37;;;;;;;43.35;22.80;;;;;;;0.11;89.29;100033.77;1732706;83;21157;-70
2020/12/02 09:25:05;;;;;;;31.02;17.17;;;;;;;0.09;89.37;100030.23;1732381;83;21180;-71
2020/12/02 09:27:34;;;;;;;36.70;21.75;;;;;;;0.12;89.32;100034.25;1732420;83;21176;-72
2020/12/02 09:30:05;;;;;;;35.13;20.88;;;;;;;0.10;88.97;100032.38;1732563;83;21303;-71
2020/12/02 09:32:33;;;;;;;31.97;18.73;;;;;;;0.07;89.28;100024.16;1732452;83;21201;-74
2020/12/02 09:35:02;;;;;;;36.90;21.23;;;;;;;0.09;88.54;100030.63;1732422;83;21165;-71
2020/12/02 09:37:30;;;;;;;37.33;21.20;;;;;;;0.01;88.96;100027.56;1732920;83;21600;-72
2020/12/02 09:39:59;;;;;;;35.95;21.30;;;;;;;0.01;89.26;100026.29;1733406;83;21291;-70
2020/12/02 09:42:45;;;;;;;37.25;21.97;;;;;;;0.10;89.24;100026.94;1733065;83;21146;-72
2020/12/02 09:45:24;;;;;;;39.60;21.35;;;;;;;0.17;88.92;100020.22;1732490;83;21261;-71
2020/12/02 09:47:54;;;;;;;35.15;20.12;;;;;;;0.27;88.83;100019.20;1732095;83;21157;-76
2020/12/02 09:50:23;;;;;;;36.63;19.12;;;;;;;0.37;88.62;100021.59;1732525;83;21169;-73
2020/12/02 09:52:51;;;;;;;37.23;19.37;;;;;;;0.39;87.87;100025.12;1732556;83;21734;-70
2020/12/02 09:55:24;;;;;;;38.28;19.85;;;;;;;0.32;87.68;100025.87;1732349;83;21169;-71
2020/12/02 09:57:53;;;;;;;37.13;20.55;;;;;;;0.28;88.08;100016.27;1732548;83;21181;-74
2020/12/02 10:00:23;;;;;;;38.78;20.57;;;;;;;0.28;88.06;100022.61;1732445;83;21315;-75
2020/12/02 10:03:25;;;;;;;32.75;18.92;;;;;;;0.29;87.95;100025.27;1732672;83;21715;-72
2020/12/02 10:06:07;;;;;;;31.27;17.77;;;;;;;0.33;87.92;100036.14;1731116;82;21165;-69
2020/12/02 10:09:02;;;;;;;36.25;18.32;;;;;;;0.29;87.93;100023.13;1732326;82;21583;-74
2020/12/02 10:12:10;;;;;;;36.13;18.80;;;;;;;0.34;87.60;100023.05;1687213;85;21179;-73
2020/12/02 10:15:21;;;;;;;30.10;17.87;;;;;;;0.34;87.72;100020.52;1670138;86;21265;-73
2020/12/02 10:18:16;;;;;;;35.68;20.70;;;;;;;0.40;87.79;100023.45;1667989;86;21567;-74
2020/12/02 10:20:47;;;;;;;38.75;21.02;;;;;;;0.41;87.59;100025.23;1667493;86;21187;-73
2020/12/02 10:23:51;;;;;;;40.25;21.73;;;;;;;0.35;87.66;100022.26;1668140;86;21290;-73
2020/12/02 10:26:33;;;;;;;27.42;15.93;;;;;;;0.32;87.80;100020.78;1667171;86;21646;-69
2020/12/02 10:29:18;;;;;;;30.00;15.78;;;;;;;0.31;87.56;100021.58;1667961;86;21188;-75
2020/12/02 10:32:14;;;;;;;32.35;18.40;;;;;;;0.32;87.64;100025.87;1667844;86;21175;-75
2020/12/02 10:34:44;;;;;;;33.25;18.35;;;;;;;0.24;87.71;100019.39;1667981;86;21203;-72
2020/12/02 10:37:32;;;;;;;35.10;20.57;;;;;;;0.30;87.91;100021.06;1668199;86;21349;-70
2020/12/02 10:40:01;;;;;;;39.53;24.63;;;;;;;0.30;88.08;100024.48;1667543;86;21657;-76
2020/12/02 10:42:45;;;;;;;35.52;20.55;;;;;;;0.34;88.23;100020.52;1667897;86;21183;-76
2020/12/02 10:45:19;;;;;;;34.03;21.23;;;;;;;0.36;88.40;100015.16;1668047;86;21198;-70
2020/12/02 10:48:05;;;;;;;34.50;19.17;;;;;;;0.34;88.36;100012.89;1668025;86;21179;-71
2020/12/02 10:50:35;;;;;;;34.08;19.32;;;;;;;0.28;88.36;100016.27;1667843;86;21214;-73
2020/12/02 10:53:11;;;;;;;35.55;19.35;;;;;;;0.29;88.56;100012.97;1667819;86;21590;-71
2020/12/02 10:55:41;;;;;;;35.15;19.95;;;;;;;0.37;88.41;100016.51;1667800;86;21180;-74
2020/12/02 10:58:20;;;;;;;41.08;22.70;;;;;;;0.47;88.28;100015.48;1667847;86;21167;-72
2020/12/02 11:00:52;;;;;;;37.50;21.55;;;;;;;0.49;87.93;100013.06;1667875;86;21184;-73
2020/12/02 11:03:30;;;;;;;45.10;24.95;;;;;;;0.46;88.19;100016.27;1667972;86;21179;-74
2020/12/02 11:06:11;;;;;;;46.73;25.20;;;;;;;0.41;88.26;100014.69;1668056;86;21207;-69
2020/12/02 11:09:06;;;;;;;51.30;28.00;;;;;;;0.41;88.55;100012.55;1687653;83;21560;-67
2020/12/02 11:12:12;;;;;;;44.35;23.98;;;;;;;0.41;88.56;100016.34;1705180;82;21173;-69
2020/12/02 11:15:09;;;;;;;36.55;21.55;;;;;;;0.40;88.76;100012.03;1704889;84;21655;-71
2020/12/02 11:18:07;;;;;;;40.38;24.60;;;;;;;0.35;88.50;100011.70;1704530;84;21169;-70
2020/12/02 11:20:49;;;;;;;42.48;24.95;;;;;;;0.35;88.91;100007.03;1704589;84;21567;-71
2020/12/02 11:23:42;;;;;;;41.63;23.22;;;;;;;0.40;89.10;100010.36;1704665;84;21153;-71
2020/12/02 11:26:37;;;;;;;42.55;23.50;;;;;;;0.46;89.09;100001.03;1705021;83;21149;-71
2020/12/02 11:29:13;;;;;;;46.37;26.65;;;;;;;0.43;88.71;100005.88;1704840;84;21161;-70
2020/12/02 11:32:02;;;;;;;40.92;23.70;;;;;;;0.40;88.88;100002.75;1704589;84;21485;-69
2020/12/02 11:34:52;;;;;;;50.58;29.15;;;;;;;0.38;89.13;100003.05;1682954;84;21303;-73
2020/12/02 11:37:49;;;;;;;50.50;28.62;;;;;;;0.38;89.38;100003.42;1704597;83;21774;-70
2020/12/02 11:40:41;;;;;;;48.30;24.77;;;;;;;0.43;89.53;100005.52;1690130;84;21185;-74
2020/12/02 11:43:43;;;;;;;43.05;26.02;;;;;;;0.48;89.21;100008.34;1704528;83;21280;-74
2020/12/02 11:46:19;;;;;;;47.00;26.95;;;;;;;0.44;89.21;100002.58;1699752;84;21177;-70
2020/12/02 11:49:10;;;;;;;41.40;24.32;;;;;;;0.45;89.37;100004.33;1704726;84;21299;-71
2020/12/02 11:51:56;;;;;;;37.38;22.98;;;;;;;0.39;89.22;100006.08;1664142;86;21359;-69
2020/12/02 11:54:25;;;;;;;39.38;21.62;;;;;;;0.35;89.63;100005.36;1697782;84;21173;-70
2020/12/02 11:56:54;;;;;;;44.40;23.27;;;;;;;0.30;89.75;100002.02;1704665;84;21185;-72
2020/12/02 11:59:27;;;;;;;41.28;23.02;;;;;;;0.33;90.04;100004.77;1704748;84;21720;-73
2020/12/02 12:02:32;;;;;;;38.60;21.95;;;;;;;0.33;89.76;100000.59;1704755;84;21336;-69